VietnamFixed distance
Vietnam Mountain Marathon 50km
30 Nov2024
Distance
47km
Finishers
657442 men215 women
Winning time
5:59:16h
Median pace
3.32km/h
Pace distribution
657 finishers · 2.55–7.85 km/h · mean 3.49
Every finisher ran the same 47 km course, so these paces are directly comparable.
Histogram of finisher pace. 657 finishers ranged from 2.55 to 7.85 kilometres per hour, with a mean of 3.49 and a median of 3.32. The busiest band is 3.0 to 3.5 kilometres per hour, with 203 finishers.
Results
Ranks 401–450 of 657
| Rank | Runner | Time | Pace | Cat. | Placing |
|---|---|---|---|---|---|
| 401 | HẢI Phòng Runner (Hpr) | 15:03:23h | 3.12 | W50 | 107th F · 5th W50 |
| 402 | HẢI Phòng Runner (Hpr) | 15:03:28h | 3.12 | M50 | 295th M · 21st M50 |
| 403 | 15:04:37h | 3.12 | M23 | 296th M · 123rd M23 | |
| 404 | 15:04:52h | 3.12 | W23 | 108th F · 40th W23 | |
| 405 | 98Runner-Anta | 15:04:52h | 3.12 | W40 | 108th F · 18th W40 |
| 406 | QMr | 15:05:02h | 3.12 | M35 | 297th M · 44th M35 |
| 407 | 15:05:05h | 3.12 | W40 | 110th F · 19th W40 | |
| 408 | HAM Lon Trail-TAR | 15:05:14h | 3.12 | W45 | 111th F · 20th W45 |
| 409 | Vietnam Ultra Trail | 15:05:19h | 3.12 | M45 | 298th M · 38th M45 |
| 410 | 15:05:24h | 3.12 | W45 | 112th F · 21st W45 | |
| 411 | 15:05:28h | 3.11 | M23 | 299th M · 124th M23 | |
| 412 | 15:05:45h | 3.11 | M23 | 300th M · 125th M23 | |
| 413 | 15:07:54h | 3.11 | M45 | 301st M · 39th M45 | |
| 414 | Vietnam Ultra Trail | 15:08:31h | 3.10 | W45 | 113th F · 22nd W45 |
| 415 | Delta Vietnam | 15:08:34h | 3.10 | M55 | 302nd M · 5th M55 |
| 416 | 15:08:50h | 3.10 | M40 | 303rd M · 63rd M40 | |
| 417 | STR-DN | 15:08:58h | 3.10 | W23 | 114th F · 41st W23 |
| 418 | VKL | 15:09:45h | 3.10 | M40 | 304th M · 64th M40 |
| 419 | VKL Runners | 15:10:38h | 3.10 | W40 | 115th F · 20th W40 |
| 420 | Hogi Club | 15:10:46h | 3.10 | M40 | 305th M · 65th M40 |
| 421 | XDR | 15:10:56h | 3.10 | W23 | 116th F · 42nd W23 |
| 422 | 15:10:56h | 3.10 | M35 | 306th M · 45th M35 | |
| 423 | 15:11:03h | 3.10 | W40 | 117th F · 21st W40 | |
| 424 | AR Saigon | 15:12:44h | 3.09 | M40 | 307th M · 66th M40 |
| 425 | Happy Feet | 15:13:08h | 3.09 | M35 | 308th M · 46th M35 |
| 426 | Công TY CỔ Phần ĐẦU TƯ... | 15:13:19h | 3.09 | M35 | 309th M · 47th M35 |
| 427 | Run4Girls | 15:13:58h | 3.08 | M35 | 310th M · 48th M35 |
| 428 | Activ Lifestyle Runner... | 15:14:00h | 3.08 | M23 | 311th M · 126th M23 |
| 429 | 15:14:40h | 3.08 | M35 | 312th M · 49th M35 | |
| 430 | 15:14:51h | 3.08 | M35 | 313th M · 50th M35 | |
| 431 | Vietnam Ultra Trail | 15:15:41h | 3.08 | W23 | 118th F · 43rd W23 |
| 432 | LEO NÚI Vũng TÀU | 15:18:27h | 3.07 | M40 | 314th M · 67th M40 |
| 433 | LEO NÚI Vũng TÀU | 15:18:27h | 3.07 | W40 | 119th F · 22nd W40 |
| 434 | Activ Lifestyle Runner... | 15:19:01h | 3.07 | W23 | 120th F · 44th W23 |
| 435 | 15:20:43h | 3.06 | W23 | 121st F · 45th W23 | |
| 436 | HTC ( Hanoi Triathlon ... | 15:22:37h | 3.06 | W60 | 122nd F · 2nd W60 |
| 437 | Vietnam Ultra Trail | 15:22:58h | 3.06 | W23 | 123rd F · 46th W23 |
| 438 | Vietnam Ultra Trail | 15:22:58h | 3.06 | W23 | 123rd F · 46th W23 |
| 439 | Vietnam Ultra Trail | 15:23:09h | 3.06 | M35 | 315th M · 51st M35 |
| 440 | 15:23:25h | 3.05 | M23 | 316th M · 127th M23 | |
| 441 | 15:25:44h | 3.05 | M23 | 317th M · 128th M23 | |
| 442 | 15:26:46h | 3.04 | W45 | 125th F · 23rd W45 | |
| 443 | 15:27:00h | 3.04 | M23 | 318th M · 129th M23 | |
| 444 | Chạy Cùng Maham | 15:27:27h | 3.04 | M23 | 319th M · 130th M23 |
| 445 | Chạy Cùng Maham | 15:27:58h | 3.04 | W35 | 126th F · 26th W35 |
| 446 | 15:28:16h | 3.04 | W45 | 127th F · 24th W45 | |
| 447 | 15:29:36h | 3.03 | W23 | 128th F · 48th W23 | |
| 448 | 15:29:40h | 3.03 | M23 | 320th M · 131st M23 | |
| 449 | Dnra | 15:30:00h | 3.03 | W23 | 129th F · 49th W23 |
| 450 | Vietnam Ultra Trail | 15:30:23h | 3.03 | M23 | 321st M · 132nd M23 |
- 401HẢI Phòng Runner (Hpr)107th F · 5th W50Time15:03:23hPace3.12Cat.W50
- 402HẢI Phòng Runner (Hpr)295th M · 21st M50Time15:03:28hPace3.12Cat.M50
- 403296th M · 123rd M23Time15:04:37hPace3.12Cat.M23
- 404108th F · 40th W23Time15:04:52hPace3.12Cat.W23
- 40598Runner-Anta108th F · 18th W40Time15:04:52hPace3.12Cat.W40
- 406QMr297th M · 44th M35Time15:05:02hPace3.12Cat.M35
- 407110th F · 19th W40Time15:05:05hPace3.12Cat.W40
- 408HAM Lon Trail-TAR111th F · 20th W45Time15:05:14hPace3.12Cat.W45
- 409Vietnam Ultra Trail298th M · 38th M45Time15:05:19hPace3.12Cat.M45
- 410112th F · 21st W45Time15:05:24hPace3.12Cat.W45
- 411299th M · 124th M23Time15:05:28hPace3.11Cat.M23
- 412300th M · 125th M23Time15:05:45hPace3.11Cat.M23
- 413301st M · 39th M45Time15:07:54hPace3.11Cat.M45
- 414Vietnam Ultra Trail113th F · 22nd W45Time15:08:31hPace3.10Cat.W45
- 415Delta Vietnam302nd M · 5th M55Time15:08:34hPace3.10Cat.M55
- 416303rd M · 63rd M40Time15:08:50hPace3.10Cat.M40
- 417STR-DN114th F · 41st W23Time15:08:58hPace3.10Cat.W23
- 418VKL304th M · 64th M40Time15:09:45hPace3.10Cat.M40
- 419VKL Runners115th F · 20th W40Time15:10:38hPace3.10Cat.W40
- 420Hogi Club305th M · 65th M40Time15:10:46hPace3.10Cat.M40
- 421XDR116th F · 42nd W23Time15:10:56hPace3.10Cat.W23
- 422306th M · 45th M35Time15:10:56hPace3.10Cat.M35
- 423117th F · 21st W40Time15:11:03hPace3.10Cat.W40
- 424AR Saigon307th M · 66th M40Time15:12:44hPace3.09Cat.M40
- 425Happy Feet308th M · 46th M35Time15:13:08hPace3.09Cat.M35
- 426Công TY CỔ Phần ĐẦU TƯ...309th M · 47th M35Time15:13:19hPace3.09Cat.M35
- 427Run4Girls310th M · 48th M35Time15:13:58hPace3.08Cat.M35
- 428Activ Lifestyle Runner...311th M · 126th M23Time15:14:00hPace3.08Cat.M23
- 429312th M · 49th M35Time15:14:40hPace3.08Cat.M35
- 430313th M · 50th M35Time15:14:51hPace3.08Cat.M35
- 431Vietnam Ultra Trail118th F · 43rd W23Time15:15:41hPace3.08Cat.W23
- 432LEO NÚI Vũng TÀU314th M · 67th M40Time15:18:27hPace3.07Cat.M40
- 433LEO NÚI Vũng TÀU119th F · 22nd W40Time15:18:27hPace3.07Cat.W40
- 434Activ Lifestyle Runner...120th F · 44th W23Time15:19:01hPace3.07Cat.W23
- 435121st F · 45th W23Time15:20:43hPace3.06Cat.W23
- 436HTC ( Hanoi Triathlon ...122nd F · 2nd W60Time15:22:37hPace3.06Cat.W60
- 437Vietnam Ultra Trail123rd F · 46th W23Time15:22:58hPace3.06Cat.W23
- 438Vietnam Ultra Trail123rd F · 46th W23Time15:22:58hPace3.06Cat.W23
- 439Vietnam Ultra Trail315th M · 51st M35Time15:23:09hPace3.06Cat.M35
- 440316th M · 127th M23Time15:23:25hPace3.05Cat.M23
- 441317th M · 128th M23Time15:25:44hPace3.05Cat.M23
- 442125th F · 23rd W45Time15:26:46hPace3.04Cat.W45
- 443318th M · 129th M23Time15:27:00hPace3.04Cat.M23
- 444Chạy Cùng Maham319th M · 130th M23Time15:27:27hPace3.04Cat.M23
- 445Chạy Cùng Maham126th F · 26th W35Time15:27:58hPace3.04Cat.W35
- 446127th F · 24th W45Time15:28:16hPace3.04Cat.W45
- 447128th F · 48th W23Time15:29:36hPace3.03Cat.W23
- 448320th M · 131st M23Time15:29:40hPace3.03Cat.M23
- 449Dnra129th F · 49th W23Time15:30:00hPace3.03Cat.W23
- 450Vietnam Ultra Trail321st M · 132nd M23Time15:30:23hPace3.03Cat.M23
Showing ranks 401–450 of 657